sensor_id;sensor_type;location;lat;lon;timestamp;temperature;humidity
35085;SHT85;21267;51.032;6.998;2024-01-30T00:00:46;8.40;85.94
35085;SHT85;21267;51.032;6.998;2024-01-30T00:03:13;8.36;85.94
35085;SHT85;21267;51.032;6.998;2024-01-30T00:05:40;8.34;85.88
35085;SHT85;21267;51.032;6.998;2024-01-30T00:08:07;8.33;86.04
35085;SHT85;21267;51.032;6.998;2024-01-30T00:10:35;8.29;86.16
35085;SHT85;21267;51.032;6.998;2024-01-30T00:13:03;8.30;86.01
35085;SHT85;21267;51.032;6.998;2024-01-30T00:15:31;8.24;86.14
35085;SHT85;21267;51.032;6.998;2024-01-30T00:17:57;8.30;86.00
35085;SHT85;21267;51.032;6.998;2024-01-30T00:20:24;8.31;86.05
35085;SHT85;21267;51.032;6.998;2024-01-30T00:22:51;8.36;85.96
35085;SHT85;21267;51.032;6.998;2024-01-30T00:25:17;8.40;85.77
35085;SHT85;21267;51.032;6.998;2024-01-30T00:27:44;8.45;85.67
35085;SHT85;21267;51.032;6.998;2024-01-30T00:30:12;8.38;85.72
35085;SHT85;21267;51.032;6.998;2024-01-30T00:32:38;8.38;85.60
35085;SHT85;21267;51.032;6.998;2024-01-30T00:35:05;8.43;85.62
35085;SHT85;21267;51.032;6.998;2024-01-30T00:37:32;8.43;85.81
35085;SHT85;21267;51.032;6.998;2024-01-30T00:39:59;8.44;85.62
35085;SHT85;21267;51.032;6.998;2024-01-30T00:42:26;8.50;85.48
35085;SHT85;21267;51.032;6.998;2024-01-30T00:44:52;8.44;85.66
35085;SHT85;21267;51.032;6.998;2024-01-30T00:47:19;8.50;85.39
35085;SHT85;21267;51.032;6.998;2024-01-30T00:49:47;8.44;85.67
35085;SHT85;21267;51.032;6.998;2024-01-30T00:52:14;8.45;85.47
35085;SHT85;21267;51.032;6.998;2024-01-30T00:54:41;8.48;85.40
35085;SHT85;21267;51.032;6.998;2024-01-30T01:01:39;8.41;85.72
35085;SHT85;21267;51.032;6.998;2024-01-30T01:04:19;8.40;85.65
35085;SHT85;21267;51.032;6.998;2024-01-30T01:07:01;8.45;85.71
35085;SHT85;21267;51.032;6.998;2024-01-30T01:09:41;8.48;85.47
35085;SHT85;21267;51.032;6.998;2024-01-30T01:12:22;8.40;85.73
35085;SHT85;21267;51.032;6.998;2024-01-30T01:14:48;8.37;85.66
35085;SHT85;21267;51.032;6.998;2024-01-30T01:17:16;8.38;85.84
35085;SHT85;21267;51.032;6.998;2024-01-30T01:19:44;8.38;85.80
35085;SHT85;21267;51.032;6.998;2024-01-30T01:22:11;8.41;85.80
35085;SHT85;21267;51.032;6.998;2024-01-30T01:24:38;8.44;85.56
35085;SHT85;21267;51.032;6.998;2024-01-30T01:27:05;8.53;85.39
35085;SHT85;21267;51.032;6.998;2024-01-30T01:29:32;8.45;85.51
35085;SHT85;21267;51.032;6.998;2024-01-30T01:31:59;8.40;85.77
35085;SHT85;21267;51.032;6.998;2024-01-30T01:34:25;8.48;85.45
35085;SHT85;21267;51.032;6.998;2024-01-30T01:36:56;8.50;85.63
35085;SHT85;21267;51.032;6.998;2024-01-30T01:39:23;8.45;85.47
35085;SHT85;21267;51.032;6.998;2024-01-30T01:41:50;8.50;85.60
35085;SHT85;21267;51.032;6.998;2024-01-30T01:44:18;8.55;85.34
35085;SHT85;21267;51.032;6.998;2024-01-30T01:46:45;8.43;85.49
35085;SHT85;21267;51.032;6.998;2024-01-30T01:49:12;8.51;85.40
35085;SHT85;21267;51.032;6.998;2024-01-30T01:51:40;8.50;85.52
35085;SHT85;21267;51.032;6.998;2024-01-30T01:54:08;8.55;85.25
35085;SHT85;21267;51.032;6.998;2024-01-30T01:56:35;8.60;85.24
35085;SHT85;21267;51.032;6.998;2024-01-30T01:59:06;8.61;85.16
35085;SHT85;21267;51.032;6.998;2024-01-30T02:01:36;8.64;85.02
35085;SHT85;21267;51.032;6.998;2024-01-30T02:04:04;8.62;85.18
35085;SHT85;21267;51.032;6.998;2024-01-30T02:06:31;8.58;85.22
35085;SHT85;21267;51.032;6.998;2024-01-30T02:08:58;8.61;85.10
35085;SHT85;21267;51.032;6.998;2024-01-30T02:11:25;8.60;85.08
35085;SHT85;21267;51.032;6.998;2024-01-30T02:13:52;8.62;85.21
35085;SHT85;21267;51.032;6.998;2024-01-30T02:16:18;8.64;85.22
35085;SHT85;21267;51.032;6.998;2024-01-30T02:18:45;8.60;85.20
35085;SHT85;21267;51.032;6.998;2024-01-30T02:21:16;8.58;85.12
35085;SHT85;21267;51.032;6.998;2024-01-30T02:23:49;8.55;85.32
35085;SHT85;21267;51.032;6.998;2024-01-30T02:26:17;8.58;85.25
35085;SHT85;21267;51.032;6.998;2024-01-30T02:28:44;8.62;85.17
35085;SHT85;21267;51.032;6.998;2024-01-30T02:31:10;8.61;85.23
35085;SHT85;21267;51.032;6.998;2024-01-30T02:33:37;8.62;85.19
35085;SHT85;21267;51.032;6.998;2024-01-30T02:36:04;8.64;85.06
35085;SHT85;21267;51.032;6.998;2024-01-30T02:38:31;8.64;85.02
35085;SHT85;21267;51.032;6.998;2024-01-30T02:41:00;8.68;85.07
35085;SHT85;21267;51.032;6.998;2024-01-30T02:43:27;8.61;85.04
35085;SHT85;21267;51.032;6.998;2024-01-30T02:45:54;8.61;85.22
35085;SHT85;21267;51.032;6.998;2024-01-30T02:48:20;8.58;85.16
35085;SHT85;21267;51.032;6.998;2024-01-30T02:50:47;8.62;85.15
35085;SHT85;21267;51.032;6.998;2024-01-30T02:53:15;8.65;84.99
35085;SHT85;21267;51.032;6.998;2024-01-30T02:55:43;8.62;85.11
35085;SHT85;21267;51.032;6.998;2024-01-30T02:58:09;8.62;85.16
35085;SHT85;21267;51.032;6.998;2024-01-30T03:00:36;8.65;84.93
35085;SHT85;21267;51.032;6.998;2024-01-30T03:03:03;8.68;85.00
35085;SHT85;21267;51.032;6.998;2024-01-30T03:05:30;8.69;84.94
35085;SHT85;21267;51.032;6.998;2024-01-30T03:07:57;8.68;84.93
35085;SHT85;21267;51.032;6.998;2024-01-30T03:10:25;8.69;84.96
35085;SHT85;21267;51.032;6.998;2024-01-30T03:12:52;8.71;84.80
35085;SHT85;21267;51.032;6.998;2024-01-30T03:15:18;8.69;84.81
35085;SHT85;21267;51.032;6.998;2024-01-30T03:17:47;8.74;84.75
35085;SHT85;21267;51.032;6.998;2024-01-30T03:20:14;8.76;84.78
35085;SHT85;21267;51.032;6.998;2024-01-30T03:22:41;8.74;84.71
35085;SHT85;21267;51.032;6.998;2024-01-30T03:25:07;8.76;84.63
35085;SHT85;21267;51.032;6.998;2024-01-30T03:27:34;8.79;84.56
35085;SHT85;21267;51.032;6.998;2024-01-30T03:30:01;8.83;84.46
35085;SHT85;21267;51.032;6.998;2024-01-30T03:32:28;8.79;84.46
35085;SHT85;21267;51.032;6.998;2024-01-30T03:34:55;8.81;84.43
35085;SHT85;21267;51.032;6.998;2024-01-30T03:37:21;8.71;84.61
35085;SHT85;21267;51.032;6.998;2024-01-30T03:39:50;8.76;84.61
35085;SHT85;21267;51.032;6.998;2024-01-30T03:42:16;8.81;84.46
35085;SHT85;21267;51.032;6.998;2024-01-30T03:44:43;8.78;84.55
35085;SHT85;21267;51.032;6.998;2024-01-30T03:47:10;8.71;84.64
35085;SHT85;21267;51.032;6.998;2024-01-30T03:49:36;8.76;84.58
35085;SHT85;21267;51.032;6.998;2024-01-30T03:52:03;8.75;84.64
35085;SHT85;21267;51.032;6.998;2024-01-30T03:54:30;8.69;84.79
35085;SHT85;21267;51.032;6.998;2024-01-30T03:56:57;8.69;84.71
35085;SHT85;21267;51.032;6.998;2024-01-30T03:59:24;8.67;84.84
35085;SHT85;21267;51.032;6.998;2024-01-30T04:01:51;8.60;84.92
35085;SHT85;21267;51.032;6.998;2024-01-30T04:04:18;8.65;84.86
35085;SHT85;21267;51.032;6.998;2024-01-30T04:06:46;8.65;84.72
35085;SHT85;21267;51.032;6.998;2024-01-30T04:09:13;8.68;84.77
35085;SHT85;21267;51.032;6.998;2024-01-30T04:11:40;8.64;84.87
35085;SHT85;21267;51.032;6.998;2024-01-30T04:14:08;8.60;85.06
35085;SHT85;21267;51.032;6.998;2024-01-30T04:16:34;8.61;85.07
35085;SHT85;21267;51.032;6.998;2024-01-30T04:19:01;8.58;85.14
35085;SHT85;21267;51.032;6.998;2024-01-30T04:21:28;8.57;85.15
35085;SHT85;21267;51.032;6.998;2024-01-30T04:23:54;8.53;85.20
35085;SHT85;21267;51.032;6.998;2024-01-30T04:26:22;8.58;85.12
35085;SHT85;21267;51.032;6.998;2024-01-30T04:28:50;8.48;85.30
35085;SHT85;21267;51.032;6.998;2024-01-30T04:31:16;8.38;85.49
35085;SHT85;21267;51.032;6.998;2024-01-30T04:33:43;8.45;85.44
35085;SHT85;21267;51.032;6.998;2024-01-30T04:36:10;8.43;85.50
35085;SHT85;21267;51.032;6.998;2024-01-30T04:38:40;8.37;85.63
35085;SHT85;21267;51.032;6.998;2024-01-30T04:41:07;8.40;85.70
35085;SHT85;21267;51.032;6.998;2024-01-30T04:43:34;8.33;85.80
35085;SHT85;21267;51.032;6.998;2024-01-30T04:46:01;8.26;85.93
35085;SHT85;21267;51.032;6.998;2024-01-30T04:48:28;8.14;86.17
35085;SHT85;21267;51.032;6.998;2024-01-30T04:50:55;8.09;86.34
35085;SHT85;21267;51.032;6.998;2024-01-30T04:53:22;7.97;86.75
35085;SHT85;21267;51.032;6.998;2024-01-30T04:55:49;7.96;86.75
35085;SHT85;21267;51.032;6.998;2024-01-30T04:58:17;7.94;86.84
35085;SHT85;21267;51.032;6.998;2024-01-30T05:00:43;7.93;86.78
35085;SHT85;21267;51.032;6.998;2024-01-30T05:03:10;7.97;86.72
35085;SHT85;21267;51.032;6.998;2024-01-30T05:05:37;7.99;86.64
35085;SHT85;21267;51.032;6.998;2024-01-30T05:08:04;7.94;86.80
35085;SHT85;21267;51.032;6.998;2024-01-30T05:10:31;7.86;86.90
35085;SHT85;21267;51.032;6.998;2024-01-30T05:12:57;7.93;86.85
35085;SHT85;21267;51.032;6.998;2024-01-30T05:15:24;7.90;86.85
35085;SHT85;21267;51.032;6.998;2024-01-30T05:17:51;7.89;86.86
35085;SHT85;21267;51.032;6.998;2024-01-30T05:20:18;7.85;87.00
35085;SHT85;21267;51.032;6.998;2024-01-30T05:22:44;7.85;86.95
35085;SHT85;21267;51.032;6.998;2024-01-30T05:25:12;7.79;87.12
35085;SHT85;21267;51.032;6.998;2024-01-30T05:27:39;7.82;87.16
35085;SHT85;21267;51.032;6.998;2024-01-30T05:30:07;7.76;87.22
35085;SHT85;21267;51.032;6.998;2024-01-30T05:32:34;7.78;87.31
35085;SHT85;21267;51.032;6.998;2024-01-30T05:35:01;7.81;87.21
35085;SHT85;21267;51.032;6.998;2024-01-30T05:37:28;7.78;87.25
35085;SHT85;21267;51.032;6.998;2024-01-30T05:39:55;7.68;87.41
35085;SHT85;21267;51.032;6.998;2024-01-30T05:42:22;7.78;87.53
35085;SHT85;21267;51.032;6.998;2024-01-30T05:44:48;7.71;87.49
35085;SHT85;21267;51.032;6.998;2024-01-30T05:47:15;7.73;87.53
35085;SHT85;21267;51.032;6.998;2024-01-30T05:49:42;7.72;87.46
35085;SHT85;21267;51.032;6.998;2024-01-30T05:52:09;7.75;87.37
35085;SHT85;21267;51.032;6.998;2024-01-30T05:54:36;7.76;87.39
35085;SHT85;21267;51.032;6.998;2024-01-30T05:57:03;7.93;87.03
35085;SHT85;21267;51.032;6.998;2024-01-30T05:59:31;7.86;87.16
35085;SHT85;21267;51.032;6.998;2024-01-30T06:01:58;7.85;87.29
35085;SHT85;21267;51.032;6.998;2024-01-30T06:04:25;7.93;87.13
35085;SHT85;21267;51.032;6.998;2024-01-30T06:06:53;7.90;87.30
35085;SHT85;21267;51.032;6.998;2024-01-30T06:09:21;7.89;87.15
35085;SHT85;21267;51.032;6.998;2024-01-30T06:11:48;8.06;86.90
35085;SHT85;21267;51.032;6.998;2024-01-30T06:14:15;8.06;86.74
35085;SHT85;21267;51.032;6.998;2024-01-30T06:16:42;8.00;86.88
35085;SHT85;21267;51.032;6.998;2024-01-30T06:19:12;8.06;86.72
35085;SHT85;21267;51.032;6.998;2024-01-30T06:21:39;8.19;86.60
35085;SHT85;21267;51.032;6.998;2024-01-30T06:24:06;8.13;86.66
35085;SHT85;21267;51.032;6.998;2024-01-30T06:26:34;8.17;86.48
35085;SHT85;21267;51.032;6.998;2024-01-30T06:29:00;8.23;86.37
35085;SHT85;21267;51.032;6.998;2024-01-30T06:31:27;8.23;86.40
35085;SHT85;21267;51.032;6.998;2024-01-30T06:33:54;8.24;86.43
35085;SHT85;21267;51.032;6.998;2024-01-30T06:36:22;8.50;85.93
35085;SHT85;21267;51.032;6.998;2024-01-30T06:38:48;8.57;85.65
35085;SHT85;21267;51.032;6.998;2024-01-30T06:41:15;8.60;85.59
35085;SHT85;21267;51.032;6.998;2024-01-30T06:43:42;8.60;85.56
35085;SHT85;21267;51.032;6.998;2024-01-30T06:46:08;8.64;85.49
35085;SHT85;21267;51.032;6.998;2024-01-30T06:48:35;8.67;85.32
35085;SHT85;21267;51.032;6.998;2024-01-30T06:51:02;8.68;85.42
35085;SHT85;21267;51.032;6.998;2024-01-30T06:53:29;8.69;85.51
35085;SHT85;21267;51.032;6.998;2024-01-30T06:55:58;8.69;85.36
35085;SHT85;21267;51.032;6.998;2024-01-30T06:58:24;8.69;85.43
35085;SHT85;21267;51.032;6.998;2024-01-30T07:00:52;8.72;85.37
35085;SHT85;21267;51.032;6.998;2024-01-30T07:03:20;8.72;85.31
35085;SHT85;21267;51.032;6.998;2024-01-30T07:05:48;8.72;85.45
35085;SHT85;21267;51.032;6.998;2024-01-30T07:08:16;8.72;85.37
35085;SHT85;21267;51.032;6.998;2024-01-30T07:10:45;8.74;85.23
35085;SHT85;21267;51.032;6.998;2024-01-30T07:13:12;8.72;85.34
35085;SHT85;21267;51.032;6.998;2024-01-30T07:15:39;8.72;85.29
35085;SHT85;21267;51.032;6.998;2024-01-30T07:18:11;8.61;85.83
35085;SHT85;21267;51.032;6.998;2024-01-30T07:20:40;8.62;85.77
35085;SHT85;21267;51.032;6.998;2024-01-30T07:23:13;8.62;85.77
35085;SHT85;21267;51.032;6.998;2024-01-30T07:25:42;8.55;85.97
35085;SHT85;21267;51.032;6.998;2024-01-30T07:28:09;8.69;85.67
35085;SHT85;21267;51.032;6.998;2024-01-30T07:33:41;8.64;85.95
35085;SHT85;21267;51.032;6.998;2024-01-30T07:36:08;8.69;85.78
35085;SHT85;21267;51.032;6.998;2024-01-30T07:38:35;8.72;85.50
35085;SHT85;21267;51.032;6.998;2024-01-30T07:41:03;8.76;85.51
35085;SHT85;21267;51.032;6.998;2024-01-30T07:43:31;8.81;85.31
35085;SHT85;21267;51.032;6.998;2024-01-30T07:46:00;8.83;85.27
35085;SHT85;21267;51.032;6.998;2024-01-30T07:48:28;8.91;85.20
35085;SHT85;21267;51.032;6.998;2024-01-30T07:50:55;8.92;85.17
35085;SHT85;21267;51.032;6.998;2024-01-30T07:53:21;8.99;84.95
35085;SHT85;21267;51.032;6.998;2024-01-30T07:55:48;9.01;84.77
35085;SHT85;21267;51.032;6.998;2024-01-30T07:58:17;9.05;84.79
35085;SHT85;21267;51.032;6.998;2024-01-30T08:00:44;9.06;84.71
35085;SHT85;21267;51.032;6.998;2024-01-30T08:03:11;9.13;84.60
35085;SHT85;21267;51.032;6.998;2024-01-30T08:05:39;9.12;84.56
35085;SHT85;21267;51.032;6.998;2024-01-30T08:08:06;9.18;84.46
35085;SHT85;21267;51.032;6.998;2024-01-30T08:10:33;9.16;84.46
35085;SHT85;21267;51.032;6.998;2024-01-30T08:13:00;9.13;84.59
35085;SHT85;21267;51.032;6.998;2024-01-30T08:15:27;9.19;84.45
35085;SHT85;21267;51.032;6.998;2024-01-30T08:17:55;9.22;84.32
35085;SHT85;21267;51.032;6.998;2024-01-30T08:20:25;9.23;84.41
35085;SHT85;21267;51.032;6.998;2024-01-30T08:22:52;9.18;84.49
35085;SHT85;21267;51.032;6.998;2024-01-30T08:25:20;9.27;84.16
35085;SHT85;21267;51.032;6.998;2024-01-30T08:27:48;9.30;84.25
35085;SHT85;21267;51.032;6.998;2024-01-30T08:30:15;9.32;84.18
35085;SHT85;21267;51.032;6.998;2024-01-30T08:32:41;9.29;84.14
35085;SHT85;21267;51.032;6.998;2024-01-30T08:35:08;9.37;84.07
35085;SHT85;21267;51.032;6.998;2024-01-30T08:37:35;9.44;83.98
35085;SHT85;21267;51.032;6.998;2024-01-30T08:40:03;9.40;83.84
35085;SHT85;21267;51.032;6.998;2024-01-30T08:42:31;9.47;83.85
35085;SHT85;21267;51.032;6.998;2024-01-30T08:44:58;9.47;83.79
35085;SHT85;21267;51.032;6.998;2024-01-30T08:47:24;9.53;83.68
35085;SHT85;21267;51.032;6.998;2024-01-30T08:49:52;9.53;83.66
35085;SHT85;21267;51.032;6.998;2024-01-30T08:52:18;9.54;83.60
35085;SHT85;21267;51.032;6.998;2024-01-30T08:54:45;9.60;83.55
35085;SHT85;21267;51.032;6.998;2024-01-30T08:57:12;9.61;83.37
35085;SHT85;21267;51.032;6.998;2024-01-30T08:59:39;9.70;83.42
35085;SHT85;21267;51.032;6.998;2024-01-30T09:02:06;9.71;83.28
35085;SHT85;21267;51.032;6.998;2024-01-30T09:04:38;9.84;82.99
35085;SHT85;21267;51.032;6.998;2024-01-30T09:07:06;10.02;82.40
35085;SHT85;21267;51.032;6.998;2024-01-30T09:09:39;10.09;82.22
35085;SHT85;21267;51.032;6.998;2024-01-30T09:12:09;10.03;82.12
35085;SHT85;21267;51.032;6.998;2024-01-30T09:14:41;9.99;82.21
35085;SHT85;21267;51.032;6.998;2024-01-30T09:17:08;10.12;82.23
35085;SHT85;21267;51.032;6.998;2024-01-30T09:19:35;10.18;81.93
35085;SHT85;21267;51.032;6.998;2024-01-30T09:22:02;10.25;81.71
35085;SHT85;21267;51.032;6.998;2024-01-30T09:24:33;10.50;81.35
35085;SHT85;21267;51.032;6.998;2024-01-30T09:27:00;10.92;80.17
35085;SHT85;21267;51.032;6.998;2024-01-30T09:29:27;10.83;80.07
35085;SHT85;21267;51.032;6.998;2024-01-30T09:31:54;10.76;80.34
35085;SHT85;21267;51.032;6.998;2024-01-30T09:34:20;10.79;80.34
35085;SHT85;21267;51.032;6.998;2024-01-30T09:36:48;10.64;80.54
35085;SHT85;21267;51.032;6.998;2024-01-30T09:39:14;10.60;80.74
35085;SHT85;21267;51.032;6.998;2024-01-30T09:41:55;10.57;80.95
35085;SHT85;21267;51.032;6.998;2024-01-30T09:44:23;10.59;80.95
35085;SHT85;21267;51.032;6.998;2024-01-30T09:46:50;10.52;81.03
35085;SHT85;21267;51.032;6.998;2024-01-30T09:49:20;10.56;80.96
35085;SHT85;21267;51.032;6.998;2024-01-30T09:51:48;10.56;80.89
35085;SHT85;21267;51.032;6.998;2024-01-30T09:54:17;10.61;80.88
35085;SHT85;21267;51.032;6.998;2024-01-30T09:56:45;10.81;80.29
35085;SHT85;21267;51.032;6.998;2024-01-30T09:59:11;10.97;79.81
35085;SHT85;21267;51.032;6.998;2024-01-30T10:01:40;10.95;79.99
35085;SHT85;21267;51.032;6.998;2024-01-30T10:04:07;10.87;80.04
35085;SHT85;21267;51.032;6.998;2024-01-30T10:06:34;11.31;79.28
35085;SHT85;21267;51.032;6.998;2024-01-30T10:09:02;11.89;77.94
35085;SHT85;21267;51.032;6.998;2024-01-30T10:11:29;11.96;77.36
35085;SHT85;21267;51.032;6.998;2024-01-30T10:13:55;11.70;77.76
35085;SHT85;21267;51.032;6.998;2024-01-30T10:16:22;11.46;78.38
35085;SHT85;21267;51.032;6.998;2024-01-30T10:18:50;11.43;78.68
35085;SHT85;21267;51.032;6.998;2024-01-30T10:21:17;11.59;78.33
35085;SHT85;21267;51.032;6.998;2024-01-30T10:23:44;11.45;78.62
35085;SHT85;21267;51.032;6.998;2024-01-30T10:26:11;12.01;77.09
35085;SHT85;21267;51.032;6.998;2024-01-30T10:28:40;12.28;76.84
35085;SHT85;21267;51.032;6.998;2024-01-30T10:31:08;11.85;77.30
35085;SHT85;21267;51.032;6.998;2024-01-30T10:33:37;11.70;77.90
35085;SHT85;21267;51.032;6.998;2024-01-30T10:36:05;11.46;78.66
35085;SHT85;21267;51.032;6.998;2024-01-30T10:38:32;11.34;79.22
35085;SHT85;21267;51.032;6.998;2024-01-30T10:41:00;11.12;79.78
35085;SHT85;21267;51.032;6.998;2024-01-30T10:43:32;11.17;79.85
35085;SHT85;21267;51.032;6.998;2024-01-30T10:46:10;11.24;79.77
35085;SHT85;21267;51.032;6.998;2024-01-30T10:48:43;11.24;79.76
35085;SHT85;21267;51.032;6.998;2024-01-30T10:51:14;11.24;79.70
35085;SHT85;21267;51.032;6.998;2024-01-30T10:53:43;11.34;79.57
35085;SHT85;21267;51.032;6.998;2024-01-30T10:56:13;11.42;79.51
35085;SHT85;21267;51.032;6.998;2024-01-30T10:58:40;11.38;79.27
35085;SHT85;21267;51.032;6.998;2024-01-30T11:01:07;11.34;79.56
35085;SHT85;21267;51.032;6.998;2024-01-30T11:03:34;11.39;79.45
35085;SHT85;21267;51.032;6.998;2024-01-30T11:06:04;11.39;79.37
35085;SHT85;21267;51.032;6.998;2024-01-30T11:08:34;11.41;79.36
35085;SHT85;21267;51.032;6.998;2024-01-30T11:11:09;11.43;79.47
35085;SHT85;21267;51.032;6.998;2024-01-30T11:13:36;11.41;79.46
35085;SHT85;21267;51.032;6.998;2024-01-30T11:16:05;11.48;79.37
35085;SHT85;21267;51.032;6.998;2024-01-30T11:18:35;11.58;79.25
35085;SHT85;21267;51.032;6.998;2024-01-30T11:21:04;11.62;79.18
35085;SHT85;21267;51.032;6.998;2024-01-30T11:23:33;11.67;79.17
35085;SHT85;21267;51.032;6.998;2024-01-30T11:26:00;11.71;79.05
35085;SHT85;21267;51.032;6.998;2024-01-30T11:28:32;11.86;78.74
35085;SHT85;21267;51.032;6.998;2024-01-30T11:31:05;11.96;78.55
35085;SHT85;21267;51.032;6.998;2024-01-30T11:33:32;12.10;78.45
35085;SHT85;21267;51.032;6.998;2024-01-30T11:36:01;12.20;77.93
35085;SHT85;21267;51.032;6.998;2024-01-30T11:38:28;12.10;77.99
35085;SHT85;21267;51.032;6.998;2024-01-30T11:40:56;12.24;77.94
35085;SHT85;21267;51.032;6.998;2024-01-30T11:43:25;12.18;77.77
35085;SHT85;21267;51.032;6.998;2024-01-30T11:45:52;12.24;77.85
35085;SHT85;21267;51.032;6.998;2024-01-30T11:48:19;12.39;77.79
35085;SHT85;21267;51.032;6.998;2024-01-30T11:50:46;12.39;77.68
35085;SHT85;21267;51.032;6.998;2024-01-30T11:53:13;12.48;77.60
35085;SHT85;21267;51.032;6.998;2024-01-30T11:55:49;12.64;77.24
35085;SHT85;21267;51.032;6.998;2024-01-30T11:58:19;12.75;77.06
35085;SHT85;21267;51.032;6.998;2024-01-30T12:00:55;12.71;76.90
35085;SHT85;21267;51.032;6.998;2024-01-30T12:03:24;12.73;76.94
35085;SHT85;21267;51.032;6.998;2024-01-30T12:05:57;12.51;77.58
35085;SHT85;21267;51.032;6.998;2024-01-30T12:08:25;12.58;77.66
35085;SHT85;21267;51.032;6.998;2024-01-30T12:10:57;12.51;77.86
35085;SHT85;21267;51.032;6.998;2024-01-30T12:13:29;12.44;77.97
35085;SHT85;21267;51.032;6.998;2024-01-30T12:16:01;12.48;77.75
35085;SHT85;21267;51.032;6.998;2024-01-30T12:18:30;12.44;77.87
35085;SHT85;21267;51.032;6.998;2024-01-30T12:20:58;12.45;78.01
35085;SHT85;21267;51.032;6.998;2024-01-30T12:23:31;12.48;77.88
35085;SHT85;21267;51.032;6.998;2024-01-30T12:26:06;12.44;77.93
35085;SHT85;21267;51.032;6.998;2024-01-30T12:28:33;12.52;77.98
35085;SHT85;21267;51.032;6.998;2024-01-30T12:31:04;12.59;77.70
35085;SHT85;21267;51.032;6.998;2024-01-30T12:33:31;12.59;77.31
35085;SHT85;21267;51.032;6.998;2024-01-30T12:36:01;12.85;77.03
35085;SHT85;21267;51.032;6.998;2024-01-30T12:38:29;12.95;76.72
35085;SHT85;21267;51.032;6.998;2024-01-30T12:40:56;13.07;76.41
35085;SHT85;21267;51.032;6.998;2024-01-30T12:43:26;13.20;76.11
35085;SHT85;21267;51.032;6.998;2024-01-30T12:46:04;13.09;76.44
35085;SHT85;21267;51.032;6.998;2024-01-30T12:48:32;13.03;76.49
35085;SHT85;21267;51.032;6.998;2024-01-30T12:51:00;12.96;76.46
35085;SHT85;21267;51.032;6.998;2024-01-30T12:53:28;12.99;76.55
35085;SHT85;21267;51.032;6.998;2024-01-30T12:55:56;12.95;76.60
35085;SHT85;21267;51.032;6.998;2024-01-30T12:58:23;13.10;76.54
35085;SHT85;21267;51.032;6.998;2024-01-30T13:00:50;12.96;76.56
35085;SHT85;21267;51.032;6.998;2024-01-30T13:03:17;13.03;76.42
35085;SHT85;21267;51.032;6.998;2024-01-30T13:05:44;12.88;76.82
35085;SHT85;21267;51.032;6.998;2024-01-30T13:08:11;12.80;77.07
35085;SHT85;21267;51.032;6.998;2024-01-30T13:10:39;12.86;77.13
35085;SHT85;21267;51.032;6.998;2024-01-30T13:13:20;12.79;77.23
35085;SHT85;21267;51.032;6.998;2024-01-30T13:15:49;12.80;77.31
35085;SHT85;21267;51.032;6.998;2024-01-30T13:18:20;12.80;77.56
35085;SHT85;21267;51.032;6.998;2024-01-30T13:20:47;12.79;77.49
35085;SHT85;21267;51.032;6.998;2024-01-30T13:23:17;12.93;77.58
35085;SHT85;21267;51.032;6.998;2024-01-30T13:25:45;12.85;77.59
35085;SHT85;21267;51.032;6.998;2024-01-30T13:28:12;12.88;77.88
35085;SHT85;21267;51.032;6.998;2024-01-30T13:30:40;12.82;77.68
35085;SHT85;21267;51.032;6.998;2024-01-30T13:33:07;12.82;78.14
35085;SHT85;21267;51.032;6.998;2024-01-30T13:35:34;12.78;78.20
35085;SHT85;21267;51.032;6.998;2024-01-30T13:38:01;12.78;78.05
35085;SHT85;21267;51.032;6.998;2024-01-30T13:40:31;12.86;78.49
35085;SHT85;21267;51.032;6.998;2024-01-30T13:42:58;12.92;78.48
35085;SHT85;21267;51.032;6.998;2024-01-30T13:45:24;12.90;78.54
35085;SHT85;21267;51.032;6.998;2024-01-30T13:47:51;12.78;79.46
35085;SHT85;21267;51.032;6.998;2024-01-30T13:50:19;12.90;79.91
35085;SHT85;21267;51.032;6.998;2024-01-30T13:52:47;12.86;80.25
35085;SHT85;21267;51.032;6.998;2024-01-30T13:55:14;12.93;80.45
35085;SHT85;21267;51.032;6.998;2024-01-30T13:57:41;12.93;80.46
35085;SHT85;21267;51.032;6.998;2024-01-30T14:00:09;12.92;80.65
35085;SHT85;21267;51.032;6.998;2024-01-30T14:02:36;12.83;80.84
35085;SHT85;21267;51.032;6.998;2024-01-30T14:05:04;12.85;80.81
35085;SHT85;21267;51.032;6.998;2024-01-30T14:07:32;12.80;81.04
35085;SHT85;21267;51.032;6.998;2024-01-30T14:09:59;12.79;81.10
35085;SHT85;21267;51.032;6.998;2024-01-30T14:12:26;12.71;81.33
35085;SHT85;21267;51.032;6.998;2024-01-30T14:14:53;12.71;81.39
35085;SHT85;21267;51.032;6.998;2024-01-30T14:17:20;12.85;81.25
35085;SHT85;21267;51.032;6.998;2024-01-30T14:19:47;12.78;81.22
35085;SHT85;21267;51.032;6.998;2024-01-30T14:22:15;12.72;81.43
35085;SHT85;21267;51.032;6.998;2024-01-30T14:24:42;12.78;81.60
35085;SHT85;21267;51.032;6.998;2024-01-30T14:27:10;12.75;81.32
35085;SHT85;21267;51.032;6.998;2024-01-30T14:29:37;12.71;81.47
35085;SHT85;21267;51.032;6.998;2024-01-30T14:32:04;12.68;81.68
35085;SHT85;21267;51.032;6.998;2024-01-30T14:34:31;12.80;81.58
35085;SHT85;21267;51.032;6.998;2024-01-30T14:36:59;12.75;81.48
35085;SHT85;21267;51.032;6.998;2024-01-30T14:39:26;12.86;81.32
35085;SHT85;21267;51.032;6.998;2024-01-30T14:41:54;12.76;81.44
35085;SHT85;21267;51.032;6.998;2024-01-30T14:44:20;12.82;81.36
35085;SHT85;21267;51.032;6.998;2024-01-30T14:46:48;12.83;81.51
35085;SHT85;21267;51.032;6.998;2024-01-30T14:49:16;12.88;81.74
35085;SHT85;21267;51.032;6.998;2024-01-30T14:51:44;12.83;81.70
35085;SHT85;21267;51.032;6.998;2024-01-30T14:54:13;12.88;81.73
35085;SHT85;21267;51.032;6.998;2024-01-30T14:56:40;12.86;81.81
35085;SHT85;21267;51.032;6.998;2024-01-30T14:59:07;12.89;81.68
35085;SHT85;21267;51.032;6.998;2024-01-30T15:01:35;12.85;81.79
35085;SHT85;21267;51.032;6.998;2024-01-30T15:04:01;12.82;81.71
35085;SHT85;21267;51.032;6.998;2024-01-30T15:06:31;12.80;81.91
35085;SHT85;21267;51.032;6.998;2024-01-30T15:08:57;12.85;81.38
35085;SHT85;21267;51.032;6.998;2024-01-30T15:11:27;12.80;81.42
35085;SHT85;21267;51.032;6.998;2024-01-30T15:13:56;12.82;81.28
35085;SHT85;21267;51.032;6.998;2024-01-30T15:16:25;12.83;81.49
35085;SHT85;21267;51.032;6.998;2024-01-30T15:18:52;12.76;81.66
35085;SHT85;21267;51.032;6.998;2024-01-30T15:21:19;12.73;81.63
35085;SHT85;21267;51.032;6.998;2024-01-30T15:23:52;12.73;81.52
35085;SHT85;21267;51.032;6.998;2024-01-30T15:26:19;12.69;81.58
35085;SHT85;21267;51.032;6.998;2024-01-30T15:28:49;12.66;81.59
35085;SHT85;21267;51.032;6.998;2024-01-30T15:31:15;12.66;81.71
35085;SHT85;21267;51.032;6.998;2024-01-30T15:33:42;12.68;81.63
35085;SHT85;21267;51.032;6.998;2024-01-30T15:36:10;12.64;81.74
35085;SHT85;21267;51.032;6.998;2024-01-30T15:38:41;12.65;81.55
35085;SHT85;21267;51.032;6.998;2024-01-30T15:41:09;12.64;81.56
35085;SHT85;21267;51.032;6.998;2024-01-30T15:43:36;12.65;81.54
35085;SHT85;21267;51.032;6.998;2024-01-30T15:46:03;12.64;81.59
35085;SHT85;21267;51.032;6.998;2024-01-30T15:48:30;12.58;81.62
35085;SHT85;21267;51.032;6.998;2024-01-30T15:50:57;12.29;82.77